sensor_id;sensor_type;location;lat;lon;timestamp;P1;durP1;ratioP1;P2;durP2;ratioP2
10550;SDS011;5324;50.684;3.862;2023-12-14T00:00:46;28.47;;;16.57;;
10550;SDS011;5324;50.684;3.862;2023-12-14T00:03:12;32.97;;;18.40;;
10550;SDS011;5324;50.684;3.862;2023-12-14T00:05:38;32.70;;;18.37;;
10550;SDS011;5324;50.684;3.862;2023-12-14T00:08:04;32.43;;;18.10;;
10550;SDS011;5324;50.684;3.862;2023-12-14T00:10:30;31.03;;;17.17;;
10550;SDS011;5324;50.684;3.862;2023-12-14T00:12:57;29.03;;;17.20;;
10550;SDS011;5324;50.684;3.862;2023-12-14T00:15:23;32.40;;;17.43;;
10550;SDS011;5324;50.684;3.862;2023-12-14T00:17:49;29.50;;;17.17;;
10550;SDS011;5324;50.684;3.862;2023-12-14T00:20:15;30.50;;;17.37;;
10550;SDS011;5324;50.684;3.862;2023-12-14T00:22:41;30.60;;;17.87;;
10550;SDS011;5324;50.684;3.862;2023-12-14T00:25:07;28.00;;;17.17;;
10550;SDS011;5324;50.684;3.862;2023-12-14T00:27:34;28.40;;;16.87;;
10550;SDS011;5324;50.684;3.862;2023-12-14T00:29:59;31.77;;;17.73;;
10550;SDS011;5324;50.684;3.862;2023-12-14T00:32:26;32.00;;;18.10;;
10550;SDS011;5324;50.684;3.862;2023-12-14T00:34:52;30.63;;;16.90;;
10550;SDS011;5324;50.684;3.862;2023-12-14T00:37:18;28.57;;;16.13;;
10550;SDS011;5324;50.684;3.862;2023-12-14T00:39:45;29.37;;;17.73;;
10550;SDS011;5324;50.684;3.862;2023-12-14T00:42:11;33.00;;;18.70;;
10550;SDS011;5324;50.684;3.862;2023-12-14T00:44:37;34.53;;;18.00;;
10550;SDS011;5324;50.684;3.862;2023-12-14T00:47:03;29.97;;;17.27;;
10550;SDS011;5324;50.684;3.862;2023-12-14T00:49:29;30.83;;;17.70;;
10550;SDS011;5324;50.684;3.862;2023-12-14T00:51:55;27.97;;;16.80;;
10550;SDS011;5324;50.684;3.862;2023-12-14T00:54:23;32.33;;;17.80;;
10550;SDS011;5324;50.684;3.862;2023-12-14T00:56:49;30.00;;;17.73;;
10550;SDS011;5324;50.684;3.862;2023-12-14T00:59:15;32.60;;;18.17;;
10550;SDS011;5324;50.684;3.862;2023-12-14T01:01:41;33.97;;;19.03;;
10550;SDS011;5324;50.684;3.862;2023-12-14T01:04:07;33.20;;;18.67;;
10550;SDS011;5324;50.684;3.862;2023-12-14T01:06:33;34.60;;;18.43;;
10550;SDS011;5324;50.684;3.862;2023-12-14T01:08:59;37.47;;;19.13;;
10550;SDS011;5324;50.684;3.862;2023-12-14T01:11:25;34.37;;;19.03;;
10550;SDS011;5324;50.684;3.862;2023-12-14T01:13:51;37.53;;;19.57;;
10550;SDS011;5324;50.684;3.862;2023-12-14T01:16:17;32.20;;;18.10;;
10550;SDS011;5324;50.684;3.862;2023-12-14T01:18:43;38.93;;;18.63;;
10550;SDS011;5324;50.684;3.862;2023-12-14T01:21:10;34.57;;;19.50;;
10550;SDS011;5324;50.684;3.862;2023-12-14T01:23:36;34.47;;;18.83;;
10550;SDS011;5324;50.684;3.862;2023-12-14T01:26:03;37.33;;;20.20;;
10550;SDS011;5324;50.684;3.862;2023-12-14T01:28:29;37.97;;;20.27;;
10550;SDS011;5324;50.684;3.862;2023-12-14T01:30:55;39.53;;;20.60;;
10550;SDS011;5324;50.684;3.862;2023-12-14T01:33:22;34.80;;;19.27;;
10550;SDS011;5324;50.684;3.862;2023-12-14T01:35:48;38.77;;;19.27;;
10550;SDS011;5324;50.684;3.862;2023-12-14T01:38:14;41.47;;;21.00;;
10550;SDS011;5324;50.684;3.862;2023-12-14T01:40:40;37.03;;;19.73;;
10550;SDS011;5324;50.684;3.862;2023-12-14T01:43:08;37.10;;;19.40;;
10550;SDS011;5324;50.684;3.862;2023-12-14T01:45:37;41.47;;;21.53;;
10550;SDS011;5324;50.684;3.862;2023-12-14T01:48:04;46.57;;;23.90;;
10550;SDS011;5324;50.684;3.862;2023-12-14T01:50:30;42.60;;;23.20;;
10550;SDS011;5324;50.684;3.862;2023-12-14T01:52:57;42.50;;;23.40;;
10550;SDS011;5324;50.684;3.862;2023-12-14T01:55:23;48.03;;;23.87;;
10550;SDS011;5324;50.684;3.862;2023-12-14T01:57:50;46.17;;;24.13;;
10550;SDS011;5324;50.684;3.862;2023-12-14T02:00:20;47.10;;;23.33;;
10550;SDS011;5324;50.684;3.862;2023-12-14T02:02:48;49.63;;;23.90;;
10550;SDS011;5324;50.684;3.862;2023-12-14T02:05:14;44.73;;;23.37;;
10550;SDS011;5324;50.684;3.862;2023-12-14T02:07:41;39.97;;;21.90;;
10550;SDS011;5324;50.684;3.862;2023-12-14T02:10:07;39.23;;;21.63;;
10550;SDS011;5324;50.684;3.862;2023-12-14T02:12:33;43.47;;;22.30;;
10550;SDS011;5324;50.684;3.862;2023-12-14T02:15:00;42.60;;;22.70;;
10550;SDS011;5324;50.684;3.862;2023-12-14T02:17:26;40.20;;;21.53;;
10550;SDS011;5324;50.684;3.862;2023-12-14T02:19:52;40.10;;;22.57;;
10550;SDS011;5324;50.684;3.862;2023-12-14T02:22:18;39.60;;;21.63;;
10550;SDS011;5324;50.684;3.862;2023-12-14T02:24:44;40.67;;;21.53;;
10550;SDS011;5324;50.684;3.862;2023-12-14T02:27:10;37.80;;;22.03;;
10550;SDS011;5324;50.684;3.862;2023-12-14T02:29:36;34.70;;;19.50;;
10550;SDS011;5324;50.684;3.862;2023-12-14T02:32:02;31.73;;;19.80;;
10550;SDS011;5324;50.684;3.862;2023-12-14T02:34:28;30.13;;;18.37;;
10550;SDS011;5324;50.684;3.862;2023-12-14T02:36:54;29.57;;;18.53;;
10550;SDS011;5324;50.684;3.862;2023-12-14T02:39:20;32.17;;;19.20;;
10550;SDS011;5324;50.684;3.862;2023-12-14T02:41:46;28.63;;;18.97;;
10550;SDS011;5324;50.684;3.862;2023-12-14T02:44:12;27.47;;;18.03;;
10550;SDS011;5324;50.684;3.862;2023-12-14T02:46:38;25.87;;;16.90;;
10550;SDS011;5324;50.684;3.862;2023-12-14T02:49:04;26.23;;;17.23;;
10550;SDS011;5324;50.684;3.862;2023-12-14T02:51:30;26.27;;;16.63;;
10550;SDS011;5324;50.684;3.862;2023-12-14T02:53:56;23.53;;;16.17;;
10550;SDS011;5324;50.684;3.862;2023-12-14T02:56:23;25.00;;;16.63;;
10550;SDS011;5324;50.684;3.862;2023-12-14T02:58:49;23.37;;;16.37;;
10550;SDS011;5324;50.684;3.862;2023-12-14T03:01:19;19.93;;;15.33;;
10550;SDS011;5324;50.684;3.862;2023-12-14T03:03:48;19.80;;;14.70;;
10550;SDS011;5324;50.684;3.862;2023-12-14T03:06:14;25.97;;;16.33;;
10550;SDS011;5324;50.684;3.862;2023-12-14T03:08:40;21.47;;;15.63;;
10550;SDS011;5324;50.684;3.862;2023-12-14T03:11:06;21.60;;;16.33;;
10550;SDS011;5324;50.684;3.862;2023-12-14T03:13:32;23.37;;;16.30;;
10550;SDS011;5324;50.684;3.862;2023-12-14T03:15:58;22.97;;;15.97;;
10550;SDS011;5324;50.684;3.862;2023-12-14T03:18:25;22.23;;;15.43;;
10550;SDS011;5324;50.684;3.862;2023-12-14T03:20:51;23.17;;;16.80;;
10550;SDS011;5324;50.684;3.862;2023-12-14T03:23:17;21.33;;;15.50;;
10550;SDS011;5324;50.684;3.862;2023-12-14T03:25:43;20.13;;;15.27;;
10550;SDS011;5324;50.684;3.862;2023-12-14T03:28:09;22.90;;;15.43;;
10550;SDS011;5324;50.684;3.862;2023-12-14T03:30:36;22.60;;;16.17;;
10550;SDS011;5324;50.684;3.862;2023-12-14T03:33:02;19.83;;;14.90;;
10550;SDS011;5324;50.684;3.862;2023-12-14T03:35:32;25.43;;;16.73;;
10550;SDS011;5324;50.684;3.862;2023-12-14T03:37:58;22.40;;;16.77;;
10550;SDS011;5324;50.684;3.862;2023-12-14T03:40:24;22.70;;;15.60;;
10550;SDS011;5324;50.684;3.862;2023-12-14T03:42:50;24.53;;;16.30;;
10550;SDS011;5324;50.684;3.862;2023-12-14T03:45:16;26.70;;;16.43;;
10550;SDS011;5324;50.684;3.862;2023-12-14T03:47:42;22.77;;;14.53;;
10550;SDS011;5324;50.684;3.862;2023-12-14T03:50:10;26.83;;;16.03;;
10550;SDS011;5324;50.684;3.862;2023-12-14T03:52:37;21.63;;;15.30;;
10550;SDS011;5324;50.684;3.862;2023-12-14T03:55:03;18.07;;;14.50;;
10550;SDS011;5324;50.684;3.862;2023-12-14T03:57:29;18.60;;;13.43;;
10550;SDS011;5324;50.684;3.862;2023-12-14T03:59:55;18.73;;;13.53;;
10550;SDS011;5324;50.684;3.862;2023-12-14T04:02:22;16.47;;;10.60;;
10550;SDS011;5324;50.684;3.862;2023-12-14T04:04:48;15.60;;;12.03;;
10550;SDS011;5324;50.684;3.862;2023-12-14T04:07:14;15.90;;;11.43;;
10550;SDS011;5324;50.684;3.862;2023-12-14T04:09:40;14.27;;;10.67;;
10550;SDS011;5324;50.684;3.862;2023-12-14T04:12:06;12.07;;;9.80;;
10550;SDS011;5324;50.684;3.862;2023-12-14T04:14:32;11.03;;;8.90;;
10550;SDS011;5324;50.684;3.862;2023-12-14T04:16:58;12.57;;;7.47;;
10550;SDS011;5324;50.684;3.862;2023-12-14T04:19:24;8.37;;;7.13;;
10550;SDS011;5324;50.684;3.862;2023-12-14T04:21:50;7.83;;;6.43;;
10550;SDS011;5324;50.684;3.862;2023-12-14T04:24:16;9.57;;;6.60;;
10550;SDS011;5324;50.684;3.862;2023-12-14T04:26:42;12.60;;;6.17;;
10550;SDS011;5324;50.684;3.862;2023-12-14T04:29:08;8.77;;;6.93;;
10550;SDS011;5324;50.684;3.862;2023-12-14T04:31:34;8.83;;;6.73;;
10550;SDS011;5324;50.684;3.862;2023-12-14T04:34:00;9.30;;;7.13;;
10550;SDS011;5324;50.684;3.862;2023-12-14T04:36:26;8.07;;;6.90;;
10550;SDS011;5324;50.684;3.862;2023-12-14T04:38:53;11.93;;;7.77;;
10550;SDS011;5324;50.684;3.862;2023-12-14T04:41:19;9.20;;;6.87;;
10550;SDS011;5324;50.684;3.862;2023-12-14T04:43:45;12.07;;;7.83;;
10550;SDS011;5324;50.684;3.862;2023-12-14T04:46:11;10.20;;;7.37;;
10550;SDS011;5324;50.684;3.862;2023-12-14T04:48:37;10.60;;;7.27;;
10550;SDS011;5324;50.684;3.862;2023-12-14T04:51:03;10.93;;;7.33;;
10550;SDS011;5324;50.684;3.862;2023-12-14T04:53:29;9.43;;;7.67;;
10550;SDS011;5324;50.684;3.862;2023-12-14T04:55:55;12.93;;;7.40;;
10550;SDS011;5324;50.684;3.862;2023-12-14T04:58:21;9.53;;;7.43;;
10550;SDS011;5324;50.684;3.862;2023-12-14T05:00:47;9.10;;;7.77;;
10550;SDS011;5324;50.684;3.862;2023-12-14T05:03:13;8.87;;;6.93;;
10550;SDS011;5324;50.684;3.862;2023-12-14T05:05:39;10.63;;;8.00;;
10550;SDS011;5324;50.684;3.862;2023-12-14T05:08:05;12.30;;;7.40;;
10550;SDS011;5324;50.684;3.862;2023-12-14T05:10:31;9.23;;;7.50;;
10550;SDS011;5324;50.684;3.862;2023-12-14T05:12:57;8.67;;;6.93;;
10550;SDS011;5324;50.684;3.862;2023-12-14T05:15:23;8.83;;;6.50;;
10550;SDS011;5324;50.684;3.862;2023-12-14T05:17:49;9.20;;;6.50;;
10550;SDS011;5324;50.684;3.862;2023-12-14T05:20:15;7.30;;;6.50;;
10550;SDS011;5324;50.684;3.862;2023-12-14T05:22:41;8.33;;;6.33;;
10550;SDS011;5324;50.684;3.862;2023-12-14T05:25:07;9.80;;;5.77;;
10550;SDS011;5324;50.684;3.862;2023-12-14T05:27:33;7.50;;;5.50;;
10550;SDS011;5324;50.684;3.862;2023-12-14T05:29:59;8.10;;;5.87;;
10550;SDS011;5324;50.684;3.862;2023-12-14T05:32:25;6.53;;;5.67;;
10550;SDS011;5324;50.684;3.862;2023-12-14T05:34:51;7.27;;;5.70;;
10550;SDS011;5324;50.684;3.862;2023-12-14T05:37:17;8.67;;;5.40;;
10550;SDS011;5324;50.684;3.862;2023-12-14T05:39:44;8.13;;;5.90;;
10550;SDS011;5324;50.684;3.862;2023-12-14T05:42:10;8.37;;;5.77;;
10550;SDS011;5324;50.684;3.862;2023-12-14T05:44:36;8.63;;;6.10;;
10550;SDS011;5324;50.684;3.862;2023-12-14T05:47:02;9.37;;;6.60;;
10550;SDS011;5324;50.684;3.862;2023-12-14T05:49:29;9.63;;;6.00;;
10550;SDS011;5324;50.684;3.862;2023-12-14T05:51:55;12.17;;;6.40;;
10550;SDS011;5324;50.684;3.862;2023-12-14T05:54:22;8.23;;;5.53;;
10550;SDS011;5324;50.684;3.862;2023-12-14T05:56:48;8.53;;;5.77;;
10550;SDS011;5324;50.684;3.862;2023-12-14T05:59:14;8.53;;;5.43;;
10550;SDS011;5324;50.684;3.862;2023-12-14T06:01:40;9.07;;;6.00;;
10550;SDS011;5324;50.684;3.862;2023-12-14T06:04:08;10.07;;;5.97;;
10550;SDS011;5324;50.684;3.862;2023-12-14T06:06:34;14.93;;;5.90;;
10550;SDS011;5324;50.684;3.862;2023-12-14T06:09:01;7.73;;;6.10;;
10550;SDS011;5324;50.684;3.862;2023-12-14T06:11:27;8.33;;;6.07;;
10550;SDS011;5324;50.684;3.862;2023-12-14T06:13:53;8.03;;;5.63;;
10550;SDS011;5324;50.684;3.862;2023-12-14T06:16:19;9.53;;;6.50;;
10550;SDS011;5324;50.684;3.862;2023-12-14T06:18:45;12.70;;;6.33;;
10550;SDS011;5324;50.684;3.862;2023-12-14T06:21:11;10.47;;;6.73;;
10550;SDS011;5324;50.684;3.862;2023-12-14T06:23:38;9.43;;;6.53;;
10550;SDS011;5324;50.684;3.862;2023-12-14T06:26:04;10.53;;;6.50;;
10550;SDS011;5324;50.684;3.862;2023-12-14T06:28:30;10.07;;;6.23;;
10550;SDS011;5324;50.684;3.862;2023-12-14T06:30:57;9.67;;;6.50;;
10550;SDS011;5324;50.684;3.862;2023-12-14T06:33:23;7.77;;;5.83;;
10550;SDS011;5324;50.684;3.862;2023-12-14T06:35:49;6.90;;;5.73;;
10550;SDS011;5324;50.684;3.862;2023-12-14T06:38:15;12.23;;;5.67;;
10550;SDS011;5324;50.684;3.862;2023-12-14T06:40:41;7.57;;;5.50;;
10550;SDS011;5324;50.684;3.862;2023-12-14T06:43:07;9.63;;;5.90;;
10550;SDS011;5324;50.684;3.862;2023-12-14T06:45:36;8.33;;;5.40;;
10550;SDS011;5324;50.684;3.862;2023-12-14T06:48:02;9.80;;;5.20;;
10550;SDS011;5324;50.684;3.862;2023-12-14T06:50:29;7.97;;;5.73;;
10550;SDS011;5324;50.684;3.862;2023-12-14T06:52:55;7.60;;;5.83;;
10550;SDS011;5324;50.684;3.862;2023-12-14T06:55:21;5.93;;;5.10;;
10550;SDS011;5324;50.684;3.862;2023-12-14T06:57:47;9.30;;;6.03;;
10550;SDS011;5324;50.684;3.862;2023-12-14T07:00:13;8.57;;;5.63;;
10550;SDS011;5324;50.684;3.862;2023-12-14T07:02:39;9.13;;;5.73;;
10550;SDS011;5324;50.684;3.862;2023-12-14T07:05:05;9.00;;;5.50;;
10550;SDS011;5324;50.684;3.862;2023-12-14T07:07:32;9.60;;;6.07;;
10550;SDS011;5324;50.684;3.862;2023-12-14T07:09:58;8.63;;;6.43;;
10550;SDS011;5324;50.684;3.862;2023-12-14T07:12:24;8.47;;;5.90;;
10550;SDS011;5324;50.684;3.862;2023-12-14T07:14:50;11.00;;;6.67;;
10550;SDS011;5324;50.684;3.862;2023-12-14T07:17:16;7.67;;;5.87;;
10550;SDS011;5324;50.684;3.862;2023-12-14T07:19:42;7.80;;;6.10;;
10550;SDS011;5324;50.684;3.862;2023-12-14T07:22:08;10.47;;;6.03;;
10550;SDS011;5324;50.684;3.862;2023-12-14T07:24:34;10.07;;;6.27;;
10550;SDS011;5324;50.684;3.862;2023-12-14T07:27:00;11.20;;;7.40;;
10550;SDS011;5324;50.684;3.862;2023-12-14T07:29:26;11.13;;;7.30;;
10550;SDS011;5324;50.684;3.862;2023-12-14T07:31:52;9.67;;;6.80;;
10550;SDS011;5324;50.684;3.862;2023-12-14T07:34:18;11.40;;;7.00;;
10550;SDS011;5324;50.684;3.862;2023-12-14T07:36:45;11.33;;;6.53;;
10550;SDS011;5324;50.684;3.862;2023-12-14T07:39:11;12.00;;;7.17;;
10550;SDS011;5324;50.684;3.862;2023-12-14T07:41:37;9.87;;;6.70;;
10550;SDS011;5324;50.684;3.862;2023-12-14T07:44:03;12.87;;;6.83;;
10550;SDS011;5324;50.684;3.862;2023-12-14T07:46:29;12.47;;;7.07;;
10550;SDS011;5324;50.684;3.862;2023-12-14T07:48:55;10.97;;;6.90;;
10550;SDS011;5324;50.684;3.862;2023-12-14T07:51:21;11.17;;;6.37;;
10550;SDS011;5324;50.684;3.862;2023-12-14T07:53:47;10.93;;;6.60;;
10550;SDS011;5324;50.684;3.862;2023-12-14T07:56:13;19.00;;;6.73;;
10550;SDS011;5324;50.684;3.862;2023-12-14T07:58:39;13.83;;;6.67;;
10550;SDS011;5324;50.684;3.862;2023-12-14T08:01:05;15.53;;;6.20;;
10550;SDS011;5324;50.684;3.862;2023-12-14T08:03:32;8.20;;;5.90;;
10550;SDS011;5324;50.684;3.862;2023-12-14T08:05:58;11.97;;;6.37;;
10550;SDS011;5324;50.684;3.862;2023-12-14T08:08:24;8.10;;;5.33;;
10550;SDS011;5324;50.684;3.862;2023-12-14T08:10:50;9.87;;;7.17;;
10550;SDS011;5324;50.684;3.862;2023-12-14T08:13:16;11.73;;;6.43;;
10550;SDS011;5324;50.684;3.862;2023-12-14T08:15:42;11.07;;;6.47;;
10550;SDS011;5324;50.684;3.862;2023-12-14T08:18:08;11.23;;;5.47;;
10550;SDS011;5324;50.684;3.862;2023-12-14T08:20:34;10.00;;;5.53;;
10550;SDS011;5324;50.684;3.862;2023-12-14T08:23:00;7.17;;;5.27;;
10550;SDS011;5324;50.684;3.862;2023-12-14T08:25:26;8.27;;;5.23;;
10550;SDS011;5324;50.684;3.862;2023-12-14T08:27:52;8.40;;;5.43;;
10550;SDS011;5324;50.684;3.862;2023-12-14T08:30:18;7.20;;;5.37;;
10550;SDS011;5324;50.684;3.862;2023-12-14T08:32:44;10.40;;;5.57;;
10550;SDS011;5324;50.684;3.862;2023-12-14T08:35:10;9.40;;;5.10;;
10550;SDS011;5324;50.684;3.862;2023-12-14T08:37:36;10.63;;;5.83;;
10550;SDS011;5324;50.684;3.862;2023-12-14T08:40:02;6.93;;;4.97;;
10550;SDS011;5324;50.684;3.862;2023-12-14T08:42:29;6.27;;;4.83;;
10550;SDS011;5324;50.684;3.862;2023-12-14T08:44:56;9.83;;;5.17;;
10550;SDS011;5324;50.684;3.862;2023-12-14T08:47:22;9.17;;;5.13;;
10550;SDS011;5324;50.684;3.862;2023-12-14T08:49:49;10.67;;;5.30;;
10550;SDS011;5324;50.684;3.862;2023-12-14T08:52:16;7.00;;;4.67;;
10550;SDS011;5324;50.684;3.862;2023-12-14T08:54:42;7.13;;;5.10;;
10550;SDS011;5324;50.684;3.862;2023-12-14T08:57:09;6.83;;;4.60;;
10550;SDS011;5324;50.684;3.862;2023-12-14T08:59:35;5.87;;;4.47;;
10550;SDS011;5324;50.684;3.862;2023-12-14T09:02:01;6.83;;;4.73;;
10550;SDS011;5324;50.684;3.862;2023-12-14T09:04:27;7.60;;;4.60;;
10550;SDS011;5324;50.684;3.862;2023-12-14T09:06:53;6.00;;;4.90;;
10550;SDS011;5324;50.684;3.862;2023-12-14T09:09:20;6.73;;;4.57;;
10550;SDS011;5324;50.684;3.862;2023-12-14T09:11:46;10.93;;;5.30;;
10550;SDS011;5324;50.684;3.862;2023-12-14T09:14:12;7.73;;;5.30;;
10550;SDS011;5324;50.684;3.862;2023-12-14T09:16:38;10.50;;;5.13;;
10550;SDS011;5324;50.684;3.862;2023-12-14T09:19:04;8.93;;;4.83;;
10550;SDS011;5324;50.684;3.862;2023-12-14T09:21:31;10.27;;;5.13;;
10550;SDS011;5324;50.684;3.862;2023-12-14T09:23:57;7.73;;;4.73;;
10550;SDS011;5324;50.684;3.862;2023-12-14T09:26:23;9.23;;;5.17;;
10550;SDS011;5324;50.684;3.862;2023-12-14T09:28:49;8.10;;;4.47;;
10550;SDS011;5324;50.684;3.862;2023-12-14T09:31:15;5.73;;;4.20;;
10550;SDS011;5324;50.684;3.862;2023-12-14T09:33:41;8.43;;;5.40;;
10550;SDS011;5324;50.684;3.862;2023-12-14T09:36:08;10.50;;;4.83;;
10550;SDS011;5324;50.684;3.862;2023-12-14T09:38:34;7.17;;;4.90;;
10550;SDS011;5324;50.684;3.862;2023-12-14T09:41:01;8.63;;;5.20;;
10550;SDS011;5324;50.684;3.862;2023-12-14T09:43:27;8.07;;;5.07;;
10550;SDS011;5324;50.684;3.862;2023-12-14T09:45:54;12.13;;;5.07;;
10550;SDS011;5324;50.684;3.862;2023-12-14T09:48:21;6.97;;;4.63;;
10550;SDS011;5324;50.684;3.862;2023-12-14T09:50:47;9.97;;;4.83;;
10550;SDS011;5324;50.684;3.862;2023-12-14T09:53:15;4.67;;;3.90;;
10550;SDS011;5324;50.684;3.862;2023-12-14T09:55:41;9.63;;;4.87;;
10550;SDS011;5324;50.684;3.862;2023-12-14T09:58:07;6.70;;;4.47;;
10550;SDS011;5324;50.684;3.862;2023-12-14T10:00:38;9.20;;;5.20;;
10550;SDS011;5324;50.684;3.862;2023-12-14T10:03:17;7.83;;;4.37;;
10550;SDS011;5324;50.684;3.862;2023-12-14T10:05:43;7.17;;;4.87;;
10550;SDS011;5324;50.684;3.862;2023-12-14T10:08:09;7.87;;;5.03;;
10550;SDS011;5324;50.684;3.862;2023-12-14T10:10:35;6.07;;;4.63;;
10550;SDS011;5324;50.684;3.862;2023-12-14T10:13:01;9.37;;;4.57;;
10550;SDS011;5324;50.684;3.862;2023-12-14T10:15:28;9.87;;;5.43;;
10550;SDS011;5324;50.684;3.862;2023-12-14T10:17:55;11.73;;;6.07;;
10550;SDS011;5324;50.684;3.862;2023-12-14T10:20:22;12.60;;;5.37;;
10550;SDS011;5324;50.684;3.862;2023-12-14T10:22:49;8.30;;;4.70;;
10550;SDS011;5324;50.684;3.862;2023-12-14T10:25:15;8.63;;;5.50;;
10550;SDS011;5324;50.684;3.862;2023-12-14T10:27:41;8.00;;;4.90;;
10550;SDS011;5324;50.684;3.862;2023-12-14T10:30:07;8.37;;;4.80;;
10550;SDS011;5324;50.684;3.862;2023-12-14T10:32:37;8.03;;;5.13;;
10550;SDS011;5324;50.684;3.862;2023-12-14T10:35:03;7.17;;;4.60;;
10550;SDS011;5324;50.684;3.862;2023-12-14T10:37:29;7.50;;;4.80;;
10550;SDS011;5324;50.684;3.862;2023-12-14T10:39:55;7.43;;;4.70;;
10550;SDS011;5324;50.684;3.862;2023-12-14T10:42:21;7.07;;;4.10;;
10550;SDS011;5324;50.684;3.862;2023-12-14T10:44:51;8.43;;;4.77;;
10550;SDS011;5324;50.684;3.862;2023-12-14T10:47:18;6.43;;;3.90;;
10550;SDS011;5324;50.684;3.862;2023-12-14T10:49:46;9.53;;;4.80;;
10550;SDS011;5324;50.684;3.862;2023-12-14T10:52:14;6.63;;;4.60;;
10550;SDS011;5324;50.684;3.862;2023-12-14T10:54:40;6.57;;;4.20;;
10550;SDS011;5324;50.684;3.862;2023-12-14T10:57:07;6.87;;;3.90;;
10550;SDS011;5324;50.684;3.862;2023-12-14T10:59:33;6.07;;;4.17;;
10550;SDS011;5324;50.684;3.862;2023-12-14T11:02:00;4.63;;;3.90;;
10550;SDS011;5324;50.684;3.862;2023-12-14T11:04:53;6.53;;;4.13;;
10550;SDS011;5324;50.684;3.862;2023-12-14T11:07:42;6.80;;;4.73;;
10550;SDS011;5324;50.684;3.862;2023-12-14T11:10:06;10.53;;;4.83;;
10550;SDS011;5324;50.684;3.862;2023-12-14T11:12:33;7.00;;;4.97;;
10550;SDS011;5324;50.684;3.862;2023-12-14T11:14:59;7.43;;;4.90;;
10550;SDS011;5324;50.684;3.862;2023-12-14T11:17:25;9.13;;;5.20;;
10550;SDS011;5324;50.684;3.862;2023-12-14T11:19:54;6.17;;;4.60;;
10550;SDS011;5324;50.684;3.862;2023-12-14T11:22:24;8.50;;;4.47;;
10550;SDS011;5324;50.684;3.862;2023-12-14T11:24:53;9.67;;;5.10;;
10550;SDS011;5324;50.684;3.862;2023-12-14T11:27:29;6.87;;;5.27;;
10550;SDS011;5324;50.684;3.862;2023-12-14T11:29:56;7.13;;;4.93;;
10550;SDS011;5324;50.684;3.862;2023-12-14T11:32:22;9.73;;;5.13;;
10550;SDS011;5324;50.684;3.862;2023-12-14T11:34:48;12.73;;;5.53;;
10550;SDS011;5324;50.684;3.862;2023-12-14T11:37:14;5.77;;;4.53;;
10550;SDS011;5324;50.684;3.862;2023-12-14T11:39:41;7.00;;;4.97;;
10550;SDS011;5324;50.684;3.862;2023-12-14T11:42:08;9.00;;;5.83;;
10550;SDS011;5324;50.684;3.862;2023-12-14T11:44:35;10.13;;;6.07;;
10550;SDS011;5324;50.684;3.862;2023-12-14T11:47:01;10.37;;;6.00;;
10550;SDS011;5324;50.684;3.862;2023-12-14T11:49:27;7.50;;;5.77;;
10550;SDS011;5324;50.684;3.862;2023-12-14T11:51:54;7.73;;;5.93;;
10550;SDS011;5324;50.684;3.862;2023-12-14T11:54:20;11.83;;;5.77;;
10550;SDS011;5324;50.684;3.862;2023-12-14T11:56:47;9.67;;;5.83;;
10550;SDS011;5324;50.684;3.862;2023-12-14T11:59:14;6.73;;;4.83;;
10550;SDS011;5324;50.684;3.862;2023-12-14T12:01:53;8.57;;;5.30;;
10550;SDS011;5324;50.684;3.862;2023-12-14T12:04:19;7.67;;;5.10;;
10550;SDS011;5324;50.684;3.862;2023-12-14T12:06:45;7.67;;;5.00;;
10550;SDS011;5324;50.684;3.862;2023-12-14T12:09:12;6.03;;;4.80;;
10550;SDS011;5324;50.684;3.862;2023-12-14T12:11:38;7.40;;;5.07;;
10550;SDS011;5324;50.684;3.862;2023-12-14T12:14:04;5.50;;;4.80;;
10550;SDS011;5324;50.684;3.862;2023-12-14T12:16:30;6.83;;;4.87;;
10550;SDS011;5324;50.684;3.862;2023-12-14T12:18:56;5.17;;;4.37;;
10550;SDS011;5324;50.684;3.862;2023-12-14T12:21:22;7.60;;;4.60;;
10550;SDS011;5324;50.684;3.862;2023-12-14T12:23:48;6.27;;;4.50;;
10550;SDS011;5324;50.684;3.862;2023-12-14T12:26:14;7.10;;;4.70;;
10550;SDS011;5324;50.684;3.862;2023-12-14T12:28:40;6.30;;;4.53;;
10550;SDS011;5324;50.684;3.862;2023-12-14T12:31:06;6.00;;;4.60;;
10550;SDS011;5324;50.684;3.862;2023-12-14T12:33:33;8.60;;;4.80;;
10550;SDS011;5324;50.684;3.862;2023-12-14T12:36:02;5.37;;;4.27;;
10550;SDS011;5324;50.684;3.862;2023-12-14T12:38:28;6.40;;;3.80;;
10550;SDS011;5324;50.684;3.862;2023-12-14T12:40:54;6.83;;;4.33;;
10550;SDS011;5324;50.684;3.862;2023-12-14T12:43:20;10.00;;;4.80;;
10550;SDS011;5324;50.684;3.862;2023-12-14T12:45:46;6.87;;;4.73;;
10550;SDS011;5324;50.684;3.862;2023-12-14T12:48:12;4.67;;;3.70;;
10550;SDS011;5324;50.684;3.862;2023-12-14T12:50:39;4.97;;;3.50;;
10550;SDS011;5324;50.684;3.862;2023-12-14T12:53:05;4.20;;;3.80;;
10550;SDS011;5324;50.684;3.862;2023-12-14T12:55:31;6.57;;;4.50;;
10550;SDS011;5324;50.684;3.862;2023-12-14T12:57:57;6.33;;;4.60;;
10550;SDS011;5324;50.684;3.862;2023-12-14T13:00:29;6.97;;;4.73;;
10550;SDS011;5324;50.684;3.862;2023-12-14T13:02:55;8.33;;;4.20;;
10550;SDS011;5324;50.684;3.862;2023-12-14T13:05:21;6.90;;;4.30;;
10550;SDS011;5324;50.684;3.862;2023-12-14T13:07:49;8.47;;;5.10;;
10550;SDS011;5324;50.684;3.862;2023-12-14T13:10:15;9.30;;;4.63;;
10550;SDS011;5324;50.684;3.862;2023-12-14T13:12:44;5.20;;;3.60;;
10550;SDS011;5324;50.684;3.862;2023-12-14T13:15:10;4.20;;;3.20;;
10550;SDS011;5324;50.684;3.862;2023-12-14T13:17:36;5.97;;;3.43;;
10550;SDS011;5324;50.684;3.862;2023-12-14T13:20:02;4.47;;;3.33;;
10550;SDS011;5324;50.684;3.862;2023-12-14T13:22:28;5.33;;;3.30;;
10550;SDS011;5324;50.684;3.862;2023-12-14T13:24:54;4.10;;;3.33;;
10550;SDS011;5324;50.684;3.862;2023-12-14T13:27:20;6.10;;;3.50;;
10550;SDS011;5324;50.684;3.862;2023-12-14T13:29:46;6.13;;;3.63;;
10550;SDS011;5324;50.684;3.862;2023-12-14T13:32:13;6.50;;;3.67;;
10550;SDS011;5324;50.684;3.862;2023-12-14T13:34:39;6.90;;;3.97;;
10550;SDS011;5324;50.684;3.862;2023-12-14T13:37:05;5.03;;;3.00;;
10550;SDS011;5324;50.684;3.862;2023-12-14T13:39:33;6.37;;;3.10;;
10550;SDS011;5324;50.684;3.862;2023-12-14T13:42:02;4.50;;;3.10;;
10550;SDS011;5324;50.684;3.862;2023-12-14T13:44:28;4.80;;;3.00;;
10550;SDS011;5324;50.684;3.862;2023-12-14T13:46:55;3.87;;;2.80;;
10550;SDS011;5324;50.684;3.862;2023-12-14T13:49:21;4.50;;;2.50;;
10550;SDS011;5324;50.684;3.862;2023-12-14T13:51:47;2.50;;;2.23;;
10550;SDS011;5324;50.684;3.862;2023-12-14T13:54:13;2.83;;;2.10;;
10550;SDS011;5324;50.684;3.862;2023-12-14T13:56:39;4.17;;;2.00;;
10550;SDS011;5324;50.684;3.862;2023-12-14T13:59:05;4.80;;;2.20;;
10550;SDS011;5324;50.684;3.862;2023-12-14T14:01:31;5.00;;;2.50;;
10550;SDS011;5324;50.684;3.862;2023-12-14T14:03:57;7.40;;;2.47;;
10550;SDS011;5324;50.684;3.862;2023-12-14T14:06:23;3.67;;;2.30;;
10550;SDS011;5324;50.684;3.862;2023-12-14T14:08:49;5.17;;;2.53;;
10550;SDS011;5324;50.684;3.862;2023-12-14T14:11:15;3.67;;;2.40;;
10550;SDS011;5324;50.684;3.862;2023-12-14T14:13:41;3.87;;;2.50;;
10550;SDS011;5324;50.684;3.862;2023-12-14T14:16:07;4.37;;;2.20;;
10550;SDS011;5324;50.684;3.862;2023-12-14T14:18:35;5.57;;;2.90;;
10550;SDS011;5324;50.684;3.862;2023-12-14T14:21:01;4.77;;;2.10;;
10550;SDS011;5324;50.684;3.862;2023-12-14T14:23:27;4.47;;;2.47;;
10550;SDS011;5324;50.684;3.862;2023-12-14T14:25:53;6.87;;;2.57;;
10550;SDS011;5324;50.684;3.862;2023-12-14T14:28:20;8.33;;;2.70;;
10550;SDS011;5324;50.684;3.862;2023-12-14T14:30:47;4.57;;;2.07;;
10550;SDS011;5324;50.684;3.862;2023-12-14T14:33:13;2.70;;;2.10;;
10550;SDS011;5324;50.684;3.862;2023-12-14T14:35:43;5.27;;;1.83;;
10550;SDS011;5324;50.684;3.862;2023-12-14T14:38:10;5.57;;;2.60;;
10550;SDS011;5324;50.684;3.862;2023-12-14T14:40:36;4.67;;;2.40;;
10550;SDS011;5324;50.684;3.862;2023-12-14T14:43:03;3.50;;;2.30;;
10550;SDS011;5324;50.684;3.862;2023-12-14T14:45:29;3.60;;;2.37;;